createdAt,value
2018-05-27T00:02:15.553Z,38.9
2018-05-27T00:12:27.632Z,39.5
2018-05-27T00:22:41.330Z,40.3
2018-05-27T00:32:55.659Z,40.6
2018-05-27T00:43:41.323Z,41.3
2018-05-27T00:55:12.439Z,40.7
2018-05-27T01:05:58.682Z,42.2
2018-05-27T01:16:13.060Z,41.9
2018-05-27T01:26:27.022Z,41.9
2018-05-27T01:37:24.130Z,42.3
2018-05-27T01:47:56.152Z,43.0
2018-05-27T01:58:10.219Z,43.1
2018-05-27T02:08:55.524Z,43.1
2018-05-27T02:19:10.107Z,42.7
2018-05-27T02:29:22.147Z,42.7
2018-05-27T02:40:07.966Z,44.8
2018-05-27T02:50:53.656Z,44.0
2018-05-27T03:01:06.204Z,43.2
2018-05-27T03:11:51.682Z,44.0
2018-05-27T03:22:37.444Z,43.1
2018-05-27T03:33:23.377Z,44.2
2018-05-27T03:44:08.885Z,44.3
2018-05-27T03:54:20.420Z,44.8
2018-05-27T04:04:34.893Z,45.6
2018-05-27T04:14:50.325Z,46.9
2018-05-27T04:25:04.652Z,47.2
2018-05-27T04:35:19.257Z,47.5
2018-05-27T04:45:33.248Z,47.1
2018-05-27T04:55:47.822Z,47.7
2018-05-27T05:06:02.806Z,50.2
2018-05-27T05:16:17.114Z,49.7
2018-05-27T05:26:31.366Z,49.5
2018-05-27T05:36:45.472Z,49.2
2018-05-27T05:46:59.907Z,49.1
2018-05-27T05:57:12.219Z,51.6
2018-05-27T06:07:26.052Z,52.1
2018-05-27T06:17:42.354Z,51.8
2018-05-27T06:27:56.395Z,51.0
2018-05-27T06:38:10.831Z,51.7
2018-05-27T06:49:57.166Z,51.1
2018-05-27T07:00:11.394Z,50.6
2018-05-27T07:10:25.683Z,51.7
2018-05-27T07:21:13.143Z,51.4
2018-05-27T07:32:55.628Z,50.4
2018-05-27T07:43:09.631Z,47.5
2018-05-27T07:55:10.374Z,43.9
2018-05-27T08:05:24.464Z,41.8
2018-05-27T08:16:55.033Z,39.9
2018-05-27T08:27:09.551Z,38.0
2018-05-27T08:38:45.848Z,36.4
2018-05-27T08:49:00.876Z,34.8
2018-05-27T08:59:13.400Z,33.6
2018-05-27T09:09:25.413Z,32.3
2018-05-27T09:20:24.886Z,31.0
2018-05-27T09:31:09.686Z,29.7
2018-05-27T09:41:55.332Z,29.1
2018-05-27T09:52:40.655Z,28.4
2018-05-27T10:02:54.627Z,28.1
2018-05-27T10:13:09.502Z,27.3
2018-05-27T10:23:23.346Z,27.2
2018-05-27T10:34:08.827Z,26.7
2018-05-27T10:45:31.541Z,25.4
2018-05-27T10:57:21.144Z,25.3
2018-05-27T11:08:06.660Z,25.0
2018-05-27T11:18:52.442Z,24.9
2018-05-27T11:29:37.365Z,24.5
2018-05-27T11:40:23.652Z,23.6
2018-05-27T11:50:38.594Z,24.2
2018-05-27T12:01:24.452Z,24.2
2018-05-27T12:12:10.141Z,24.3
2018-05-27T12:24:30.781Z,24.6
2018-05-27T12:34:43.198Z,24.1
2018-05-27T12:45:28.857Z,24.4
2018-05-27T12:57:09.424Z,24.8
2018-05-27T13:18:12.456Z,25.7
2018-05-27T13:28:26.736Z,26.0
2018-05-27T13:38:40.629Z,26.6
2018-05-27T13:49:26.509Z,27.1
2018-05-27T14:00:56.923Z,27.1
2018-05-27T14:11:12.616Z,26.9
2018-05-27T14:21:26.924Z,27.8
2018-05-27T14:31:41.942Z,28.2
2018-05-27T14:41:58.933Z,28.3
2018-05-27T14:52:16.504Z,28.2
2018-05-27T15:02:30.901Z,28.8
2018-05-27T15:12:45.436Z,29.0
2018-05-27T15:22:57.189Z,29.5
2018-05-27T15:33:11.739Z,30.0
2018-05-27T15:43:27.205Z,31.0
2018-05-27T15:53:46.443Z,31.5
2018-05-27T16:03:58.486Z,32.7
2018-05-27T16:14:14.608Z,32.8
2018-05-27T16:24:30.791Z,33.7
2018-05-27T16:34:47.152Z,33.8
2018-05-27T16:45:32.795Z,34.9
2018-05-27T16:55:47.886Z,34.9
2018-05-27T17:06:34.833Z,35.3
2018-05-27T17:16:49.880Z,35.4
2018-05-27T17:27:03.872Z,36.0
2018-05-27T17:37:59.763Z,36.3
2018-05-27T17:48:13.527Z,36.4
2018-05-27T17:58:33.844Z,37.0
2018-05-27T18:09:19.596Z,37.2
2018-05-27T18:20:06.042Z,37.7
2018-05-27T18:30:20.654Z,38.3
2018-05-27T18:55:37.580Z,39.8
2018-05-27T19:22:43.772Z,41.0
2018-05-27T19:33:38.070Z,41.6
2018-05-27T19:44:29.916Z,42.3
2018-05-27T20:06:59.777Z,42.5
2018-05-27T20:35:01.843Z,43.2
2018-05-27T21:11:48.355Z,44.4
2018-05-27T21:22:00.725Z,45.2
2018-05-27T21:32:45.915Z,45.9
2018-05-27T21:43:00.809Z,45.9
2018-05-27T21:53:15.118Z,46.2
2018-05-27T22:03:29.278Z,46.3
2018-05-27T22:13:53.849Z,46.4
2018-05-27T22:25:14.344Z,46.3
2018-05-27T22:36:01.925Z,46.6
2018-05-27T22:46:47.787Z,46.9
2018-05-27T22:57:00.109Z,47.2
2018-05-27T23:07:14.538Z,47.3
2018-05-27T23:17:31.453Z,47.4
2018-05-27T23:28:18.212Z,49.1
2018-05-27T23:39:04.912Z,48.9
2018-05-27T23:49:19.395Z,48.7
2018-05-27T23:59:34.360Z,48.2
